Pagrindinis puslapis
METAR-TAF:

METAR-TAF

Oro uostai :

Nuakšotas, Mauritanija

platuma: 18-18-36N, ilguma: 015-58-11W, Aukštis: 3 m

Dabartinis oras

Ataskaita buvo paskelbta 32 minutes, ne 03:00 UTC
Vėjas 8 kt iš Šiaurės Rytų
Temperatūra 18°C
Drėgmė 18%
Slėgis 1017 hPa
Matomumas: 7000 m

METAR: GQNO 180300Z 04008KT 7000 NSC 18/M07 Q1017 NOSIG

Laikas: 03:32 (03:32 UTC)

Prognozė

Ataskaita buvo paskelbta 4 valandos ir 32 minutes, ne 23:00 UTC
Prognozė galioja nuo 18 metu 00 UTC su 19 metu 06 UTC
Vėjas 7 kt iš Šiaurės Rytų
Matomumas: 5000 m
dulkės
Laikinai
nuo 18 metu 09 UTC su 18 metu 17 UTC
Vėjas 15 kt iš Rytų su gūsio iki 25 kt
Matomumas: 2000 m
Smėlio pustymas

TAF: GQNO 172300Z 1800/1906 05007KT 5000 DU NSC TEMPO 1809/1817 09015G25KT 2000 BLSA

Orai ataskaitas ir orų prognozės (METAR, TAF).

turimą stotys yra geltonos ir raudonos taškus žemėlapyje.

Perkelti pele per norėdami pamatyti stoties vardą.

Tada spustelėkite, norėdami matyti oro stebėjimo ir prognozės.

Norėdami pakeisti žemėlapį: spustelėkite ant žalios mygtukų su juodo kryžiaus žemyn,; žalią mygtuką su brūkšneliu, jei norite nutolinti; arba žalių rodyklių gretimoms žemėlapius.


METAR-TAF: